ADDS METAR Data INFO
IDs: Format: Raw Decoded Include TAF

Data at: 1442 UTC 22 Feb 2018

KMML 221356Z AUTO 16010KT 10SM OVC050 M12/M15 A3050 RMK AO2 SLP361 T11171150 FZRANO TSNO
KMML 221256Z AUTO 12005KT 10SM OVC070 M13/M16 A3050 RMK AO2 SLP360 T11281156 FZRANO
KMML 221156Z AUTO 12003KT 10SM CLR M14/M17 A3051 RMK AO2 SLP364 T11441167 11144 21178 56009 FZRANO
KMML 221056Z AUTO 16008KT 10SM CLR M16/M18 A3053 RMK AO2 SLP367 T11611183 FZRANO
KMML 220956Z AUTO 09003KT 10SM CLR M17/M19 A3053 RMK AO2 SLP367 T11671189 FZRANO
KMML 220856Z AUTO 00000KT 10SM CLR M18/M21 A3054 RMK AO2 SLP374 T11781206 56003 FZRANO
KMML 220756Z AUTO 14003KT 10SM BKN110 M17/M19 A3054 RMK AO2 SLP374 T11671189 FZRANO
KMML 220656Z AUTO 17003KT 10SM OVC110 M16/M18 A3054 RMK AO2 SLP374 T11561183 FZRANO
KMML 220556Z AUTO 16005KT 10SM OVC120 M15/M18 A3055 RMK AO2 SLP377 T11501178 11106 21156 410721222 56012 FZRANO
KMML 220456Z AUTO 00000KT 10SM OVC120 M15/M18 A3055 RMK AO2 SLP377 T11501183 FZRANO
KMML 220356Z AUTO 19004KT 10SM CLR M15/M18 A3058 RMK AO2 SLP388 T11501178 FZRANO
KMML 212356Z AUTO 20004KT 10SM CLR M11/M17 A3058 RMK AO2 SLP392 T11061167 11072 21106 50002 FZRANO
KMML 212256Z AUTO 23004KT 10SM CLR M08/M15 A3059 RMK AO2 SLP390 T10781150 FZRANO
KMML 212056Z AUTO 27009KT 10SM CLR M07/M16 A3058 RMK AO2 SLP387 T10721156 56012 FZRANO
KMML 211956Z AUTO 28011KT 10SM CLR M08/M16 A3058 RMK AO2 SLP386 T10781161 FZRANO
KMML 211856Z AUTO 27009KT 10SM CLR M08/M16 A3059 RMK AO2 SLP392 T10831156 FZRANO
KMML 211756Z AUTO 23010KT 10SM CLR M08/M17 A3061 RMK AO2 SLP399 T10831167 11078 21222 51018 FZRANO
KMML 211656Z AUTO 16007KT 10SM CLR M08/M18 A3060 RMK AO2 SLP396 T10831178 FZRANO
KMML 211556Z AUTO 00000KT 10SM CLR M11/M16 A3057 RMK AO2 SLP385 T11061161 FZRANO
KMML 211456Z AUTO 24007KT 10SM CLR M16/M21 A3056 RMK AO2 SLP383 T11561211 53012 FZRANO
KMML 211356Z AUTO 24009KT 10SM CLR M21/M24 A3053 RMK AO2 SLP377 T12061239 FZRANO
KMML 211256Z AUTO 22006KT 10SM CLR M21/M23 A3052 RMK AO2 SLP372 T12061233 FZRANO
KMML 210756Z AUTO 28011KT 10SM CLR M18/M22 A3044 RMK AO2 SLP341 T11781217 FZRANO
KMML 210656Z AUTO 28011KT 10SM CLR M18/M22 A3042 RMK AO2 SLP336 T11831217 FZRANO
KMML 210556Z AUTO 27007KT 10SM CLR M18/M21 A3039 RMK AO2 SLP327 T11831211 11128 21183 411061183 53022 FZRANO